Time;durP1;ratioP1;P1;durP2;ratioP2;P2;SDS_P1;SDS_P2;PMS_P1;PMS_P2;Temp;Humidity;BMP_temperature;BMP_pressure;BME280_temperature;BME280_humidity;BME280_pressure;Samples;Min_cycle;Max_cycle;Signal;HPM_P1;HPM_P2
2022/03/25 00:03:21;;;;;;;;;;;9.30;31.20;;;7.64;32.84;102502.47;8276739;28;20013;-95
2022/03/25 00:07:43;;;;;;;;;;;9.20;31.20;;;7.50;32.68;102483.56;8254813;28;19980;-95
2022/03/25 00:12:05;;;;;;;;;;;9.20;31.30;;;7.62;32.71;102506.81;8276563;28;20016;-95
2022/03/25 00:16:27;;;;;;;;;;;9.10;31.30;;;7.50;32.76;102497.44;8254070;28;20012;-95
2022/03/25 00:20:49;;;;;;;;;;;9.10;31.30;;;7.43;32.81;102498.41;8275774;28;20012;-95
2022/03/25 00:25:11;;;;;;;;;;;8.90;31.30;;;7.42;33.12;102496.66;8257277;28;20008;-95
2022/03/25 00:29:32;;;;;;;;;;;9.00;31.40;;;7.18;32.58;102477.06;8274012;28;20454;-95
2022/03/25 00:33:56;;;;;;;;;;;8.90;31.40;;;7.31;32.72;102501.16;8269904;28;20016;-95
2022/03/25 00:38:18;;;;;;;;;;;8.80;31.40;;;7.07;33.06;102469.44;8265433;28;19977;-95
2022/03/25 00:42:40;;;;;;;;;;;8.80;31.40;;;7.16;32.96;102472.78;8269098;28;19981;-95
2022/03/25 00:47:02;;;;;;;;;;;8.80;31.40;;;6.98;32.80;102459.13;8274749;28;20020;-95
2022/03/25 00:51:24;;;;;;;;;;;8.70;31.50;;;6.97;33.18;102457.44;8273519;28;20020;-95
2022/03/25 00:55:45;;;;;;;;;;;8.70;31.50;;;7.04;33.14;102485.03;8274621;28;20008;-95
2022/03/25 01:00:08;;;;;;;;;;;8.60;31.50;;;6.95;33.08;102482.56;8265317;28;20020;-95
2022/03/25 01:04:30;;;;;;;;;;;8.60;31.60;;;6.67;33.03;102444.78;8261087;28;20489;-95
2022/03/25 01:08:52;;;;;;;;;;;8.50;31.60;;;6.72;33.37;102462.03;8252641;28;20433;-94
2022/03/25 01:13:14;;;;;;;;;;;8.40;31.60;;;6.62;33.03;102453.50;8287980;28;20012;-95
2022/03/25 01:17:37;;;;;;;;;;;8.40;31.70;;;6.71;33.33;102475.03;8258901;28;20012;-94
2022/03/25 01:21:58;;;;;;;;;;;8.30;31.60;;;6.63;33.13;102463.00;8260299;28;20032;-96
2022/03/25 01:26:20;;;;;;;;;;;8.20;31.70;;;6.62;32.99;102471.66;8239989;28;20335;-95
2022/03/25 01:30:43;;;;;;;;;;;8.20;31.60;;;6.53;33.34;102466.56;8251692;28;19921;-95
2022/03/25 01:35:15;;;;;;;;;;;8.10;31.70;;;6.46;33.25;102464.06;8256139;28;20000;-95
2022/03/25 01:39:37;;;;;;;;;;;8.30;31.90;;;6.18;32.85;102444.44;8246644;28;20629;-95
2022/03/25 01:44:00;;;;;;;;;;;8.20;31.80;;;6.12;33.79;102441.03;8264604;28;20304;-95
2022/03/25 01:48:22;;;;;;;;;;;7.90;31.80;;;6.13;33.69;102466.06;8252696;28;19921;-95
2022/03/25 01:52:43;;;;;;;;;;;7.90;31.80;;;6.16;33.46;102477.31;8268155;28;20024;-95
2022/03/25 01:57:08;;;;;;;;;;;7.70;31.90;;;5.94;33.64;102453.28;8252722;28;20015;-94
2022/03/25 02:01:30;;;;;;;;;;;7.70;31.90;;;5.95;33.65;102461.91;8259930;28;19996;-94
2022/03/25 02:05:52;;;;;;;;;;;7.60;31.90;;;5.88;33.59;102460.19;8277971;28;20012;-94
2022/03/25 02:10:17;;;;;;;;;;;7.60;31.90;;;5.84;33.81;102454.19;8252070;28;20013;-94
2022/03/25 02:14:39;;;;;;;;;;;7.30;31.80;;;5.76;33.45;102458.56;8271588;28;20004;-94
2022/03/25 02:19:01;;;;;;;;;;;7.50;32.00;;;5.73;33.54;102454.28;8253390;28;20011;-94
2022/03/25 02:23:23;;;;;;;;;;;7.40;31.90;;;5.68;33.73;102450.00;8264260;28;20012;-94
2022/03/25 02:27:46;;;;;;;;;;;7.30;32.10;;;5.61;33.39;102474.22;8270282;28;20016;-94
2022/03/25 02:32:10;;;;;;;;;;;7.30;32.10;;;5.40;33.76;102447.59;8271267;28;20004;-94
2022/03/25 02:36:36;;;;;;;;;;;7.20;32.00;;;5.35;33.75;102444.16;8264875;28;20009;-94
2022/03/25 02:40:58;;;;;;;;;;;7.10;32.10;;;5.33;33.68;102457.09;8248986;28;20023;-95
2022/03/25 02:45:24;;;;;;;;;;;7.00;32.10;;;5.18;33.64;102433.88;8256640;28;20012;-95
2022/03/25 02:49:46;;;;;;;;;;;6.70;32.00;;;5.09;34.00;102427.00;8259391;28;20024;-94
2022/03/25 02:54:08;;;;;;;;;;;7.00;32.20;;;5.27;33.97;102456.28;8267315;28;20399;-95
2022/03/25 02:58:30;;;;;;;;;;;7.00;32.30;;;5.16;33.74;102443.41;8263529;28;20008;-94
2022/03/25 03:02:53;;;;;;;;;;;6.90;32.20;;;5.10;33.73;102435.63;8247444;28;20404;-94
2022/03/25 03:07:16;;;;;;;;;;;6.90;32.20;;;5.03;33.99;102431.38;8257609;28;19996;-95
2022/03/25 03:11:38;;;;;;;;;;;6.70;32.20;;;5.19;34.23;102455.47;8256679;28;20004;-95
2022/03/25 03:16:00;;;;;;;;;;;6.70;32.20;;;5.15;34.10;102458.94;8272052;28;20020;-95
2022/03/25 03:20:24;;;;;;;;;;;6.80;32.20;;;5.13;33.66;102458.94;8264382;28;20442;-95
2022/03/25 03:24:46;;;;;;;;;;;6.80;32.30;;;5.05;34.22;102456.38;8267339;28;20004;-94
2022/03/25 03:29:07;;;;;;;;;;;6.70;32.30;;;4.92;34.12;102443.50;8273239;28;20032;-94
2022/03/25 03:33:31;;;;;;;;;;;6.70;32.30;;;4.98;33.98;102469.38;8278147;28;20004;-94
2022/03/25 03:37:53;;;;;;;;;;;6.70;32.50;;;4.82;34.08;102447.84;8269252;28;20354;-94
2022/03/25 03:42:15;;;;;;;;;;;6.60;32.30;;;4.73;34.08;102447.88;8273413;28;20000;-94
2022/03/25 03:46:37;;;;;;;;;;;6.60;32.40;;;4.73;34.11;102464.28;8262533;28;20008;-94
2022/03/25 03:50:59;;;;;;;;;;;6.60;32.40;;;4.73;34.11;102461.69;8276637;28;20036;-93
2022/03/25 03:55:20;;;;;;;;;;;6.40;32.30;;;4.77;34.61;102473.72;8272746;28;20029;-93
2022/03/25 03:59:42;;;;;;;;;;;6.60;32.50;;;4.60;34.33;102465.16;8271518;28;20008;-93
2022/03/25 04:04:05;;;;;;;;;;;6.50;32.50;;;4.50;34.03;102455.69;8276466;28;20012;-93
2022/03/25 04:08:27;;;;;;;;;;;6.40;32.40;;;4.64;34.60;102497.91;8279729;28;20046;-92
2022/03/25 04:12:49;;;;;;;;;;;6.40;32.40;;;4.48;34.37;102472.94;8258935;28;20028;-93
2022/03/25 04:17:11;;;;;;;;;;;6.30;32.50;;;4.44;34.20;102479.84;8292078;28;20080;-92
2022/03/25 04:21:33;;;;;;;;;;;6.30;32.60;;;4.44;34.40;102493.63;8287521;28;20004;-92
2022/03/25 04:25:54;;;;;;;;;;;6.20;32.60;;;4.30;34.25;102473.84;8270211;28;20000;-90
2022/03/25 04:30:21;;;;;;;;;;;6.20;32.60;;;4.30;34.07;102485.03;8270541;28;20015;-90
2022/03/25 04:34:42;;;;;;;;;;;6.20;32.70;;;4.26;34.67;102477.28;8272831;28;19999;-90
2022/03/25 04:39:04;;;;;;;;;;;6.10;32.70;;;4.26;34.41;102485.03;8273904;28;20004;-89
2022/03/25 04:43:26;;;;;;;;;;;6.10;32.80;;;4.27;34.31;102486.78;8263848;28;20024;-90
2022/03/25 04:47:48;;;;;;;;;;;6.00;32.90;;;4.20;34.28;102489.34;8278800;28;20008;-90
2022/03/25 04:52:10;;;;;;;;;;;6.00;32.80;;;4.21;34.36;102493.66;8272359;28;20035;-90
2022/03/25 04:56:34;;;;;;;;;;;6.00;32.80;;;4.17;34.50;102491.94;8259477;28;20330;-91
2022/03/25 05:00:56;;;;;;;;;;;6.00;32.80;;;4.19;34.85;102500.56;8261107;28;20016;-90
2022/03/25 05:05:18;;;;;;;;;;;6.00;32.80;;;4.14;34.75;102499.69;8300441;28;20457;-91
2022/03/25 05:09:40;;;;;;;;;;;6.00;32.80;;;4.05;34.92;102491.06;8273807;28;20465;-91
2022/03/25 05:14:02;;;;;;;;;;;6.00;33.20;;;4.06;34.70;102506.59;8267380;28;20008;-90
2022/03/25 05:18:24;;;;;;;;;;;5.90;33.00;;;4.07;34.94;102512.59;8269517;28;20012;-90
2022/03/25 05:22:46;;;;;;;;;;;5.90;33.00;;;4.05;34.71;102520.38;8272646;28;20003;-90
2022/03/25 05:27:08;;;;;;;;;;;5.80;32.90;;;4.09;34.66;102521.22;8266200;28;20012;-90
2022/03/25 05:31:31;;;;;;;;;;;5.80;32.90;;;3.97;34.67;102504.00;8251115;28;19927;-90
2022/03/25 05:35:52;;;;;;;;;;;5.80;33.10;;;3.87;34.72;102485.03;8255831;28;20012;-90
2022/03/25 05:40:14;;;;;;;;;;;5.80;33.00;;;4.06;34.84;102522.09;8242660;28;20345;-90
2022/03/25 05:44:36;;;;;;;;;;;5.90;33.00;;;3.93;34.89;102505.69;8264940;28;20016;-90
2022/03/25 05:48:58;;;;;;;;;;;5.80;33.10;;;3.98;34.98;102508.28;8250863;28;19921;-90
2022/03/25 05:53:20;;;;;;;;;;;5.80;33.10;;;3.88;35.26;102499.66;8277276;28;19996;-90
2022/03/25 05:57:43;;;;;;;;;;;5.80;33.10;;;3.95;35.09;102510.88;8258720;28;20004;-90
2022/03/25 06:02:04;;;;;;;;;;;5.70;33.10;;;4.13;35.24;102526.41;8256657;28;20004;-91
2022/03/25 06:06:26;;;;;;;;;;;5.90;33.20;;;4.06;35.00;102516.06;8244228;28;20004;-90
2022/03/25 06:10:49;;;;;;;;;;;6.30;33.40;;;4.12;35.04;102521.22;8255173;28;20020;-90
2022/03/25 06:15:11;;;;;;;;;;;6.00;33.30;;;4.18;35.34;102527.25;8252960;28;20012;-90
2022/03/25 06:19:33;;;;;;;;;;;6.00;33.30;;;4.31;35.31;102546.22;8262101;28;20016;-91
2022/03/25 06:23:55;;;;;;;;;;;6.10;33.30;;;4.18;35.37;102516.06;8269541;28;20019;-90
2022/03/25 06:28:16;;;;;;;;;;;6.20;33.40;;;4.29;35.41;102518.63;8280562;28;19981;-89
2022/03/25 06:32:38;;;;;;;;;;;6.10;33.40;;;4.43;35.06;102541.06;8267770;28;19935;-90
2022/03/25 06:37:01;;;;;;;;;;;6.30;33.50;;;4.49;35.48;102542.78;8259541;28;20016;-91
2022/03/25 06:41:23;;;;;;;;;;;6.30;33.50;;;4.52;35.48;102534.16;8272354;28;20000;-90
2022/03/25 06:45:44;;;;;;;;;;;6.50;33.70;;;4.63;35.45;102530.69;8257255;28;20017;-91
2022/03/25 06:50:08;;;;;;;;;;;6.60;33.70;;;4.78;35.43;102545.34;8267344;28;19921;-90
2022/03/25 06:54:30;;;;;;;;;;;6.70;33.90;;;4.91;35.49;102545.31;8262126;28;20012;-90
2022/03/25 06:58:52;;;;;;;;;;;6.80;33.90;;;4.95;35.61;102536.69;8241904;28;20016;-91
2022/03/25 07:03:14;;;;;;;;;;;6.90;33.60;;;5.15;35.87;102560.78;8270183;28;20353;-90
2022/03/25 07:07:37;;;;;;;;;;;7.00;33.70;;;5.05;35.78;102528.88;8276121;28;19921;-88
2022/03/25 07:11:59;;;;;;;;;;;7.10;33.90;;;5.30;36.15;102555.56;8289541;28;19921;-89
2022/03/25 07:16:21;;;;;;;;;;;7.30;34.00;;;5.48;36.30;102567.59;8270892;28;20437;-94
2022/03/25 07:20:42;;;;;;;;;;;7.40;34.30;;;5.54;35.83;102552.00;8269838;28;20433;-91
2022/03/25 07:25:04;;;;;;;;;;;7.50;34.20;;;5.68;36.08;102554.50;8272651;28;20009;-92
2022/03/25 07:29:26;;;;;;;;;;;7.70;34.70;;;5.90;36.50;102570.81;8275638;28;20446;-96
2022/03/25 07:33:48;;;;;;;;;;;7.90;34.40;;;6.10;35.98;102567.25;8269344;28;20641;-96
2022/03/25 07:38:10;;;;;;;;;;;8.10;34.90;;;6.42;36.53;102591.22;8264214;28;20024;-96
2022/03/25 07:42:31;;;;;;;;;;;8.30;35.00;;;6.55;36.12;102572.97;8248184;28;20434;-83
2022/03/25 07:46:53;;;;;;;;;;;8.50;35.00;;;6.84;36.51;102583.09;8269165;28;20433;-92
2022/03/25 07:51:15;;;;;;;;;;;8.70;34.90;;;7.07;36.71;102588.94;8250419;28;20594;-94
2022/03/25 07:55:37;;;;;;;;;;;9.00;34.90;;;7.30;36.37;102580.00;8257863;28;20020;-95
2022/03/25 07:59:59;;;;;;;;;;;9.10;35.00;;;7.73;36.60;102600.28;8267637;28;20005;-86
2022/03/25 08:04:23;;;;;;;;;;;9.60;35.10;;;7.94;36.62;102586.13;8287614;28;20008;-91
2022/03/25 08:08:47;;;;;;;;;;;9.90;35.00;;;8.30;36.52;102589.06;8253168;28;19917;-89
2022/03/25 08:13:09;;;;;;;;;;;10.60;35.20;;;8.64;36.55;102597.19;8250161;28;19926;-89
2022/03/25 08:17:30;;;;;;;;;;;10.60;34.90;;;8.97;36.22;102587.94;8264401;28;20005;-93
2022/03/25 08:21:54;;;;;;;;;;;11.00;35.10;;;9.36;36.40;102592.41;8266692;28;20036;-95
2022/03/25 08:30:56;;;;;;;;;;;11.70;35.00;;;9.92;36.33;102579.91;8275856;28;20020;-93
2022/03/25 08:35:18;;;;;;;;;;;12.00;35.10;;;10.40;36.83;102596.22;8263508;28;20009;-96
2022/03/25 08:39:40;;;;;;;;;;;12.40;34.90;;;10.71;36.46;102605.03;8255265;28;20113;-93
2022/03/25 08:44:02;;;;;;;;;;;12.70;35.00;;;10.93;35.85;102587.88;8249645;28;20020;-93
2022/03/25 08:48:23;;;;;;;;;;;13.00;34.80;;;11.26;36.50;102590.47;8275461;28;20016;-92
2022/03/25 08:52:46;;;;;;;;;;;13.30;34.80;;;11.58;36.34;102601.78;8285427;28;20004;-92
2022/03/25 08:57:08;;;;;;;;;;;13.60;34.60;;;11.93;36.06;102612.09;8259525;28;19996;-94
2022/03/25 09:01:30;;;;;;;;;;;13.90;34.80;;;12.05;36.28;102582.06;8262497;28;20008;-83
2022/03/25 09:05:52;;;;;;;;;;;14.20;34.40;;;12.30;36.57;102573.41;8275379;28;19921;-86
2022/03/25 09:10:14;;;;;;;;;;;14.90;34.60;;;12.68;36.40;102587.84;8274566;28;20612;-88
2022/03/25 09:14:36;;;;;;;;;;;14.80;34.40;;;12.96;36.39;102589.50;8275150;28;20028;-96
2022/03/25 09:18:58;;;;;;;;;;;15.10;34.40;;;13.34;36.30;102610.91;8274261;28;19921;-89
2022/03/25 09:23:19;;;;;;;;;;;15.30;34.30;;;13.53;36.16;102593.59;8282738;28;20357;-93
2022/03/25 09:27:41;;;;;;;;;;;15.50;34.40;;;13.69;36.20;102573.72;8276431;28;20429;-95
2022/03/25 09:32:03;;;;;;;;;;;15.70;34.10;;;14.01;36.00;102587.34;8262610;28;19925;-91
2022/03/25 09:36:25;;;;;;;;;;;16.10;34.10;;;14.31;35.90;102605.44;8267332;28;19937;-93
2022/03/25 09:40:47;;;;;;;;;;;16.30;34.00;;;14.35;35.75;102573.72;8260186;28;19921;-91
2022/03/25 09:45:10;;;;;;;;;;;16.50;34.00;;;14.78;35.78;102600.84;8265093;28;20011;-92
2022/03/25 09:49:32;;;;;;;;;;;16.80;33.90;;;15.02;36.08;102603.34;8271081;28;19921;-91
2022/03/25 09:53:57;;;;;;;;;;;17.00;33.70;;;15.20;35.91;102593.78;8271981;28;19928;-91
2022/03/25 09:58:20;;;;;;;;;;;17.20;33.70;;;15.41;35.97;102592.81;8262922;28;20327;-91
2022/03/25 10:02:43;;;;;;;;;;;17.40;33.60;;;15.67;35.73;102602.16;8253734;28;20110;-91
2022/03/25 10:07:22;;;;;;;;;;;17.60;33.50;;;15.64;35.63;102556.69;8255061;28;19922;-91
2022/03/25 10:11:45;;;;;;;;;;;17.80;33.40;;;16.03;35.70;102593.44;8260022;28;19935;-91
2022/03/25 10:16:24;;;;;;;;;;;18.00;33.40;;;16.20;35.40;102592.63;8242329;28;19921;-91
2022/03/25 10:20:46;;;;;;;;;;;18.10;33.30;;;16.38;35.57;102591.72;8238840;28;19924;-92
2022/03/25 10:25:09;;;;;;;;;;;18.50;33.30;;;16.61;35.53;102605.56;8264542;28;19927;-87
2022/03/25 10:29:31;;;;;;;;;;;18.50;33.20;;;16.66;35.27;102587.72;8255041;28;19925;-89
2022/03/25 10:33:59;;;;;;;;;;;18.60;33.00;;;16.79;35.26;102575.59;8247684;28;19921;-89
2022/03/25 10:38:22;;;;;;;;;;;18.80;33.10;;;16.87;35.18;102569.09;8261628;28;19928;-88
2022/03/25 10:43:06;;;;;;;;;;;18.90;33.00;;;17.18;35.33;102582.38;8248006;28;20404;-88
2022/03/25 10:47:29;;;;;;;;;;;19.00;33.00;;;17.32;35.10;102583.44;8254454;28;19922;-89
2022/03/25 10:51:56;;;;;;;;;;;19.10;32.60;;;17.37;35.02;102565.56;8261142;28;19936;-90
2022/03/25 10:56:17;;;;;;;;;;;19.30;32.80;;;17.44;35.21;102548.41;8246826;28;19925;-86
2022/03/25 11:00:40;;;;;;;;;;;19.40;32.80;;;17.68;35.10;102570.81;8265106;28;20165;-88
2022/03/25 11:05:01;;;;;;;;;;;19.40;32.70;;;17.73;34.90;102554.72;8253946;28;20377;-88
2022/03/25 11:09:24;;;;;;;;;;;19.50;32.60;;;17.70;34.92;102533.75;8264224;28;19921;-84
2022/03/25 11:13:47;;;;;;;;;;;19.70;32.60;;;18.02;34.89;102558.41;8235677;28;19921;-88
2022/03/25 11:18:09;;;;;;;;;;;19.70;32.70;;;18.04;34.85;102545.94;8250758;28;20016;-88
2022/03/25 11:22:30;;;;;;;;;;;19.90;32.60;;;18.08;34.75;102547.47;8278609;28;20004;-88
2022/03/25 11:26:54;;;;;;;;;;;20.00;32.50;;;18.24;34.70;102544.78;8278099;28;20020;-90
2022/03/25 11:31:15;;;;;;;;;;;20.30;32.60;;;18.43;34.75;102554.28;8261947;28;19926;-91
2022/03/25 11:35:41;;;;;;;;;;;20.10;32.10;;;18.35;34.58;102525.63;8260552;28;20004;-89
2022/03/25 11:40:22;;;;;;;;;;;20.20;32.30;;;18.65;34.44;102556.50;8247475;28;20008;-89
2022/03/25 11:44:45;;;;;;;;;;;20.30;32.40;;;18.70;34.53;102551.78;8288793;28;20008;-88
2022/03/25 11:49:19;;;;;;;;;;;20.40;31.90;;;18.74;34.41;102538.31;8280793;28;20004;-90
2022/03/25 11:53:41;;;;;;;;;;;20.50;32.10;;;18.90;34.29;102547.94;8266634;28;20025;-84
2022/03/25 11:58:15;;;;;;;;;;;20.50;32.20;;;19.00;34.27;102539.34;8286518;28;20055;-87
2022/03/25 12:02:40;;;;;;;;;;;20.70;32.80;;;19.06;34.32;102526.66;8278782;28;19929;-86
2022/03/25 12:07:08;;;;;;;;;;;20.50;32.10;;;19.05;34.13;102504.63;8286979;28;19925;-87
2022/03/25 12:11:56;;;;;;;;;;;20.80;32.10;;;19.20;34.02;102529.31;8286897;28;20298;-87
2022/03/25 12:16:45;;;;;;;;;;;20.90;32.40;;;19.23;33.97;102523.81;8291273;28;19928;-87
2022/03/25 12:21:30;;;;;;;;;;;20.90;32.20;;;19.23;34.19;102505.28;8287970;28;19932;-85
2022/03/25 12:25:52;;;;;;;;;;;20.90;32.20;;;19.16;34.15;102477.47;8283931;28;19932;-87
2022/03/25 12:30:14;;;;;;;;;;;20.90;32.10;;;19.34;33.93;102499.31;8283719;28;20404;-86
2022/03/25 12:35:04;;;;;;;;;;;21.00;32.00;;;19.45;33.95;102507.41;8273474;28;19928;-86
2022/03/25 12:39:27;;;;;;;;;;;21.00;31.60;;;19.27;33.67;102472.34;8287235;28;19921;-91
2022/03/25 12:43:58;;;;;;;;;;;21.00;31.60;;;19.41;33.87;102497.94;8243965;28;19923;-91
2022/03/25 12:48:23;;;;;;;;;;;21.00;32.00;;;19.43;34.12;102480.16;8262448;28;19917;-91
2022/03/25 12:52:45;;;;;;;;;;;21.10;32.10;;;19.42;34.03;102468.72;8259266;28;19930;-91
2022/03/25 12:57:07;;;;;;;;;;;21.10;32.00;;;19.51;34.04;102480.50;8263254;28;19921;-92
2022/03/25 13:01:29;;;;;;;;;;;21.10;32.10;;;19.59;33.88;102477.34;8259227;28;20012;-88
2022/03/25 13:05:51;;;;;;;;;;;21.10;31.90;;;19.65;33.80;102485.75;8283018;28;20016;-88
2022/03/25 13:10:13;;;;;;;;;;;21.20;31.70;;;19.61;33.49;102475.47;8259202;28;19937;-89
2022/03/25 13:14:34;;;;;;;;;;;21.20;31.50;;;19.56;33.52;102461.66;8243063;28;19928;-88
2022/03/25 13:18:56;;;;;;;;;;;21.20;31.50;;;19.70;33.68;102480.19;8253639;28;19921;-90
2022/03/25 13:23:25;;;;;;;;;;;21.20;31.80;;;19.71;33.56;102473.91;8258908;28;19956;-85
2022/03/25 13:27:47;;;;;;;;;;;21.20;31.50;;;19.70;33.78;102463.44;8255133;28;19977;-86
2022/03/25 13:32:08;;;;;;;;;;;21.10;31.50;;;19.69;33.51;102453.78;8261989;28;19936;-86
2022/03/25 13:36:33;;;;;;;;;;;21.10;31.80;;;19.45;33.61;102404.91;8262485;28;20025;-90
2022/03/25 13:40:56;;;;;;;;;;;21.20;31.80;;;19.58;33.45;102420.00;8262016;28;19927;-90
2022/03/25 13:45:18;;;;;;;;;;;21.30;31.70;;;19.69;33.52;102428.13;8251740;28;19925;-89
2022/03/25 13:49:40;;;;;;;;;;;21.30;31.90;;;19.69;33.52;102425.47;8259267;28;20280;-90
2022/03/25 13:54:10;;;;;;;;;;;21.30;31.90;;;19.81;33.30;102432.59;8248042;28;19931;-89
2022/03/25 13:58:32;;;;;;;;;;;21.30;32.00;;;19.91;33.43;102434.66;8271962;28;19925;-89
2022/03/25 14:02:54;;;;;;;;;;;21.30;31.60;;;19.87;33.50;102426.91;8245150;28;20005;-90
2022/03/25 14:07:17;;;;;;;;;;;21.40;31.80;;;19.96;33.54;102438.69;8245445;28;19922;-91
2022/03/25 14:11:38;;;;;;;;;;;21.40;31.80;;;19.91;33.54;102421.38;8262011;28;19926;-89
2022/03/25 14:16:17;;;;;;;;;;;21.40;31.70;;;19.81;33.32;102407.88;8252759;28;19926;-88
2022/03/25 14:20:39;;;;;;;;;;;21.40;31.70;;;19.88;33.43;102435.69;8257033;28;19921;-91
2022/03/25 14:25:01;;;;;;;;;;;21.30;31.50;;;19.84;33.26;102440.34;8238110;28;19926;-87
2022/03/25 14:29:23;;;;;;;;;;;21.10;31.70;;;19.73;33.20;102415.50;8241113;28;19925;-86
2022/03/25 14:33:44;;;;;;;;;;;21.20;31.60;;;19.75;33.17;102425.06;8246200;28;19931;-91
2022/03/25 14:38:06;;;;;;;;;;;21.10;32.10;;;19.26;33.15;102348.81;8268599;28;19921;-87
2022/03/25 14:42:28;;;;;;;;;;;21.10;31.90;;;19.60;33.17;102397.72;8237755;28;19921;-87
2022/03/25 14:46:50;;;;;;;;;;;21.20;32.00;;;19.74;33.32;102419.84;8271566;28;19928;-87
2022/03/25 14:51:11;;;;;;;;;;;21.10;31.90;;;19.63;33.28;102407.28;8267421;28;19925;-88
2022/03/25 14:55:35;;;;;;;;;;;21.10;31.90;;;19.70;33.18;102415.72;8264955;28;19928;-87
2022/03/25 14:59:57;;;;;;;;;;;21.00;31.90;;;19.62;33.19;102389.69;8242343;28;19929;-87
2022/03/25 15:04:19;;;;;;;;;;;21.00;31.90;;;19.48;33.30;102372.06;8261479;28;20005;-87
2022/03/25 15:08:42;;;;;;;;;;;21.00;32.00;;;19.57;33.19;102389.16;8267084;28;19927;-86
2022/03/25 15:13:03;;;;;;;;;;;21.00;32.00;;;19.33;33.13;102334.19;8230897;28;19930;-91
2022/03/25 15:17:25;;;;;;;;;;;20.90;32.00;;;19.63;33.40;102388.72;8279520;28;19925;-86
2022/03/25 15:21:47;;;;;;;;;;;20.80;31.90;;;19.61;33.20;102388.00;8252815;28;19921;-86
2022/03/25 15:26:08;;;;;;;;;;;20.90;32.00;;;19.50;33.29;102362.22;8263557;28;19921;-86
2022/03/25 15:35:10;;;;;;;;;;;21.00;32.00;;;19.61;33.04;102375.59;8259427;28;19928;-85
2022/03/25 15:44:12;;;;;;;;;;;20.90;31.90;;;19.50;33.16;102364.03;8244131;28;19936;-86
2022/03/25 15:48:34;;;;;;;;;;;20.90;32.00;;;19.43;33.14;102359.13;8260312;28;19921;-86
2022/03/25 15:52:56;;;;;;;;;;;20.80;32.00;;;19.44;33.00;102371.44;8259393;28;20305;-86
2022/03/25 15:57:19;;;;;;;;;;;21.00;32.00;;;19.37;33.19;102369.28;8254752;28;19932;-87
2022/03/25 16:01:40;;;;;;;;;;;20.80;31.90;;;19.14;33.04;102331.91;8273011;28;19927;-86
2022/03/25 16:06:05;;;;;;;;;;;20.70;32.00;;;19.23;33.03;102354.31;8235008;28;20295;-87
2022/03/25 16:10:29;;;;;;;;;;;20.70;31.90;;;19.28;33.07;102368.09;8265541;28;19925;-86
2022/03/25 16:14:50;;;;;;;;;;;20.60;32.00;;;19.22;32.85;102360.53;8253777;28;19921;-87
2022/03/25 16:19:12;;;;;;;;;;;20.50;32.00;;;19.11;33.14;102348.00;8267369;28;19928;-86
2022/03/25 16:23:34;;;;;;;;;;;20.50;32.00;;;19.06;33.05;102349.25;8256448;28;19921;-86
2022/03/25 16:27:56;;;;;;;;;;;20.50;32.10;;;19.13;33.15;102369.94;8262542;28;19927;-85
2022/03/25 16:32:18;;;;;;;;;;;20.50;32.10;;;19.01;33.18;102358.34;8263275;28;19921;-85
2022/03/25 16:36:40;;;;;;;;;;;20.40;32.10;;;19.02;33.19;102367.97;8243526;28;19918;-85
2022/03/25 16:41:01;;;;;;;;;;;20.20;32.10;;;18.91;33.27;102362.53;8262879;28;20004;-86
2022/03/25 16:45:23;;;;;;;;;;;20.30;32.10;;;18.94;33.19;102366.78;8237928;28;19929;-85
2022/03/25 16:49:44;;;;;;;;;;;20.10;32.10;;;18.80;33.20;102354.44;8254565;28;20330;-85
2022/03/25 16:54:09;;;;;;;;;;;20.20;32.20;;;18.76;33.41;102358.22;8266681;28;20383;-85
2022/03/25 16:58:31;;;;;;;;;;;20.10;32.20;;;18.52;33.20;102332.34;8254043;28;19917;-85
2022/03/25 17:02:52;;;;;;;;;;;20.20;32.30;;;18.57;33.23;102351.41;8296054;28;19917;-86
2022/03/25 17:07:14;;;;;;;;;;;20.00;32.30;;;18.58;33.29;102369.00;8265129;28;19977;-85
2022/03/25 17:11:36;;;;;;;;;;;19.90;32.30;;;18.47;33.35;102365.31;8272655;28;20397;-85
2022/03/25 17:15:57;;;;;;;;;;;19.80;32.40;;;18.42;33.24;102375.34;8281324;28;20301;-85
2022/03/25 17:20:19;;;;;;;;;;;20.10;32.50;;;18.16;33.47;102337.28;8271124;28;19917;-85
2022/03/25 17:24:43;;;;;;;;;;;19.60;32.40;;;18.10;33.28;102338.50;8275677;28;19917;-85
2022/03/25 17:29:08;;;;;;;;;;;19.60;32.40;;;18.09;33.23;102356.16;8269379;28;19917;-84
2022/03/25 17:33:36;;;;;;;;;;;19.50;32.50;;;18.00;33.40;102361.16;8284612;28;19927;-85
2022/03/25 17:37:57;;;;;;;;;;;19.60;32.50;;;17.82;33.38;102355.16;8256523;28;20367;-86
2022/03/25 17:42:19;;;;;;;;;;;19.20;32.40;;;17.85;33.30;102386.72;8259197;28;20455;-85
2022/03/25 17:46:43;;;;;;;;;;;19.10;32.50;;;17.73;33.48;102388.25;8270022;28;19918;-85
2022/03/25 17:51:05;;;;;;;;;;;19.00;32.50;;;17.67;33.46;102388.63;8257803;28;19922;-85
2022/03/25 17:55:27;;;;;;;;;;;18.60;32.40;;;17.49;33.41;102372.03;8260256;28;19924;-84
2022/03/25 17:59:49;;;;;;;;;;;18.90;32.50;;;17.48;33.75;102392.31;8266262;28;19922;-84
2022/03/25 18:04:10;;;;;;;;;;;18.40;32.40;;;17.34;33.86;102394.91;8240184;28;20289;-85
2022/03/25 18:08:32;;;;;;;;;;;18.70;32.60;;;17.11;33.66;102384.78;8274356;28;19921;-85
2022/03/25 18:12:53;;;;;;;;;;;18.50;32.60;;;16.94;33.44;102383.09;8281333;28;19929;-84
2022/03/25 18:17:15;;;;;;;;;;;18.20;32.50;;;16.79;33.52;102377.72;8289346;28;19925;-85
2022/03/25 18:21:37;;;;;;;;;;;18.20;32.60;;;16.78;33.44;102406.84;8265035;28;19967;-85
2022/03/25 18:26:01;;;;;;;;;;;18.00;32.60;;;16.64;33.61;102407.56;8270503;28;21360;-84
2022/03/25 18:30:23;;;;;;;;;;;17.90;32.70;;;16.48;33.44;102396.13;8290257;28;20398;-84
2022/03/25 18:34:44;;;;;;;;;;;17.90;32.80;;;16.34;33.72;102387.16;8249693;28;19925;-84
2022/03/25 18:39:06;;;;;;;;;;;17.30;32.60;;;16.17;33.89;102396.88;8287449;28;19952;-83
2022/03/25 18:43:28;;;;;;;;;;;17.50;32.80;;;16.15;33.55;102408.38;8285206;28;19931;-83
2022/03/25 18:47:50;;;;;;;;;;;17.70;32.90;;;16.10;33.73;102423.56;8286713;28;19921;-83
2022/03/25 18:52:11;;;;;;;;;;;17.60;32.90;;;16.01;33.50;102431.06;8285794;28;19926;-84
2022/03/25 18:56:33;;;;;;;;;;;17.60;33.00;;;15.85;33.56;102425.72;8286657;28;20729;-84
2022/03/25 19:00:55;;;;;;;;;;;17.10;32.80;;;15.79;33.79;102434.78;8286069;28;20553;-83
2022/03/25 19:05:19;;;;;;;;;;;16.90;32.80;;;15.55;33.91;102412.25;8285992;28;19921;-84
2022/03/25 19:09:47;;;;;;;;;;;16.90;32.90;;;15.42;33.95;102412.03;8272179;28;19928;-83
2022/03/25 19:14:08;;;;;;;;;;;16.80;32.90;;;15.46;34.05;102440.75;8285448;28;20434;-83
2022/03/25 19:18:30;;;;;;;;;;;16.70;32.90;;;15.26;33.83;102428.53;8262770;28;19921;-83
2022/03/25 19:22:55;;;;;;;;;;;16.90;33.10;;;15.12;33.73;102427.47;8282492;28;19922;-83
2022/03/25 19:27:16;;;;;;;;;;;16.50;33.00;;;15.07;34.28;102437.38;8268428;28;19922;-83
2022/03/25 19:31:38;;;;;;;;;;;16.30;33.00;;;14.98;33.96;102447.38;8258010;28;19932;-83
2022/03/25 19:36:00;;;;;;;;;;;16.20;33.00;;;14.86;34.00;102437.44;8286989;28;19925;-83
2022/03/25 19:40:23;;;;;;;;;;;15.90;32.90;;;14.40;33.99;102389.53;8286907;28;19921;-84
2022/03/25 19:44:45;;;;;;;;;;;16.00;33.10;;;14.55;34.30;102428.28;8251682;28;20040;-84
2022/03/25 19:49:07;;;;;;;;;;;15.90;33.10;;;14.38;34.30;102415.88;8276378;28;19922;-84
2022/03/25 19:53:28;;;;;;;;;;;15.80;33.10;;;14.47;34.26;102434.78;8277210;28;19932;-83
2022/03/25 19:57:50;;;;;;;;;;;15.70;33.20;;;14.24;34.17;102417.41;8275230;28;19927;-84
2022/03/25 20:02:13;;;;;;;;;;;15.80;33.20;;;14.27;33.95;102451.44;8257434;28;19927;-83
2022/03/25 20:06:35;;;;;;;;;;;15.50;33.20;;;14.14;34.16;102445.84;8254204;28;19917;-83
2022/03/25 20:10:57;;;;;;;;;;;15.40;33.20;;;14.04;34.34;102439.25;8282422;28;19929;-84
2022/03/25 20:15:18;;;;;;;;;;;15.30;33.20;;;13.97;34.25;102443.09;8262179;28;20008;-83
2022/03/25 20:19:40;;;;;;;;;;;15.20;33.30;;;13.85;34.40;102440.06;8255240;28;19917;-84
2022/03/25 20:24:02;;;;;;;;;;;15.40;33.40;;;13.61;34.39;102417.41;8257609;28;19918;-84